Time;durP1;ratioP1;P1;durP2;ratioP2;P2;SDS_P1;SDS_P2;PMS_P1;PMS_P2;Temp;Humidity;BMP_temperature;BMP_pressure;BME280_temperature;BME280_humidity;BME280_pressure;Samples;Min_cycle;Max_cycle;Signal;HPM_P1;HPM_P2
2021/10/25 00:01:53;;;;;;;7.32;1.85;;;;;;;1.16;64.69;100586.16;4903539;29;20051;-88
2021/10/25 00:04:19;;;;;;;4.90;1.80;;;;;;;1.18;64.96;100591.31;4902485;29;20048;-88
2021/10/25 00:06:46;;;;;;;12.73;2.23;;;;;;;1.20;64.85;100602.72;4933524;29;20040;-90
2021/10/25 00:09:14;;;;;;;5.65;1.95;;;;;;;1.12;65.28;100595.72;4939375;29;20044;-91
2021/10/25 00:11:43;;;;;;;9.15;2.00;;;;;;;1.04;64.97;100576.31;4907648;29;20059;-90
2021/10/25 00:14:11;;;;;;;6.77;1.97;;;;;;;1.23;65.01;100610.38;4938223;29;20098;-90
2021/10/25 00:16:41;;;;;;;4.75;1.90;;;;;;;1.25;64.84;100610.94;4938449;29;20070;-89
2021/10/25 00:19:09;;;;;;;6.45;2.50;;;;;;;1.18;65.00;100621.78;4908699;29;20039;-88
2021/10/25 00:21:37;;;;;;;3.80;2.10;;;;;;;1.18;65.36;100621.78;4908942;29;20048;-91
2021/10/25 00:24:04;;;;;;;4.88;1.90;;;;;;;0.99;65.78;100589.59;4940195;29;20050;-89
2021/10/25 00:26:30;;;;;;;4.97;2.10;;;;;;;1.21;65.37;100614.31;4922176;29;20052;-88
2021/10/25 00:28:57;;;;;;;3.20;1.83;;;;;;;1.28;65.09;100615.06;4922688;29;20134;-88
2021/10/25 00:31:25;;;;;;;5.13;2.42;;;;;;;1.14;65.56;100592.81;4939230;29;20063;-91
2021/10/25 00:33:53;;;;;;;5.95;2.45;;;;;;;1.08;65.69;100589.13;4919707;29;20143;-87
2021/10/25 00:36:20;;;;;;;4.13;2.25;;;;;;;1.12;65.53;100589.50;4920446;29;20044;-91
2021/10/25 00:38:47;;;;;;;6.35;2.33;;;;;;;1.24;65.66;100605.78;4931752;29;20092;-89
2021/10/25 00:41:14;;;;;;;7.67;2.17;;;;;;;1.28;65.89;100615.91;4922113;29;20051;-91
2021/10/25 00:43:42;;;;;;;5.70;2.13;;;;;;;1.02;65.85;100581.09;4902838;29;20043;-88
2021/10/25 00:46:11;;;;;;;5.93;2.25;;;;;;;1.32;65.91;100627.06;4910586;29;20051;-87
2021/10/25 00:48:38;;;;;;;14.98;2.47;;;;;;;1.38;65.68;100643.16;4915502;29;20671;-91
2021/10/25 00:51:07;;;;;;;4.13;2.35;;;;;;;1.39;65.69;100652.91;4958056;28;20039;-90
2021/10/25 00:53:34;;;;;;;9.27;2.60;;;;;;;1.24;66.09;100643.50;4958260;29;20125;-89
2021/10/25 00:56:04;;;;;;;6.63;2.67;;;;;;;1.17;66.67;100647.06;4926121;29;20043;-90
2021/10/25 00:58:36;;;;;;;8.98;2.65;;;;;;;1.29;66.58;100654.44;4970610;29;20043;-90
2021/10/25 01:01:06;;;;;;;6.35;2.85;;;;;;;1.22;66.39;100653.66;4974807;29;20051;-86
2021/10/25 01:03:35;;;;;;;7.82;2.50;;;;;;;1.16;66.86;100658.06;4964124;29;20035;-88
2021/10/25 01:06:03;;;;;;;6.85;2.70;;;;;;;1.02;66.88;100616.09;4926782;29;20077;-91
2021/10/25 01:08:35;;;;;;;8.35;2.92;;;;;;;1.10;66.67;100640.91;4941965;29;20059;-90
2021/10/25 01:11:04;;;;;;;6.40;3.08;;;;;;;1.30;66.39;100648.84;4958303;29;20035;-88
2021/10/25 01:13:30;;;;;;;6.22;2.65;;;;;;;1.29;66.78;100660.66;4941113;29;20077;-88
2021/10/25 01:15:57;;;;;;;10.27;3.13;;;;;;;1.28;66.57;100658.19;4923952;29;20572;-88
2021/10/25 01:18:25;;;;;;;9.70;2.60;;;;;;;1.20;66.34;100631.53;4940112;29;20090;-90
2021/10/25 01:20:51;;;;;;;9.93;2.93;;;;;;;1.10;67.10;100657.06;4956250;29;20051;-90
2021/10/25 01:23:22;;;;;;;6.10;2.92;;;;;;;1.05;67.49;100650.66;4937089;29;20536;-87
2021/10/25 01:25:54;;;;;;;5.95;3.20;;;;;;;1.16;67.40;100664.28;4937795;29;20071;-91
2021/10/25 01:28:21;;;;;;;6.47;3.03;;;;;;;1.16;67.42;100672.34;4906621;29;20138;-90
2021/10/25 01:30:52;;;;;;;6.43;2.95;;;;;;;1.01;67.70;100652.16;4938387;29;20036;-89
2021/10/25 01:33:21;;;;;;;8.32;2.90;;;;;;;1.12;67.49;100662.22;4941179;29;20162;-88
2021/10/25 01:35:47;;;;;;;6.53;2.90;;;;;;;1.07;67.56;100659.38;4924348;29;20039;-90
2021/10/25 01:38:16;;;;;;;7.47;3.10;;;;;;;1.03;67.74;100672.44;4940050;29;20441;-89
2021/10/25 01:40:45;;;;;;;5.22;2.80;;;;;;;1.17;67.59;100682.09;4940861;29;20381;-89
2021/10/25 01:43:12;;;;;;;5.33;2.67;;;;;;;1.05;67.46;100664.13;4921806;29;20048;-89
2021/10/25 01:45:38;;;;;;;5.53;2.70;;;;;;;1.16;67.50;100685.81;4939788;29;20044;-86
2021/10/25 01:48:05;;;;;;;7.13;3.00;;;;;;;0.86;67.61;100652.44;4900674;29;20664;-86
2021/10/25 01:50:31;;;;;;;6.32;2.97;;;;;;;0.72;67.85;100640.09;4919649;29;20074;-87
2021/10/25 01:53:04;;;;;;;8.68;3.10;;;;;;;0.98;67.86;100672.25;4885845;29;20045;-87
2021/10/25 01:55:35;;;;;;;6.78;3.33;;;;;;;0.99;67.54;100679.28;4901781;29;20086;-89
2021/10/25 01:58:02;;;;;;;7.00;2.70;;;;;;;1.04;67.75;100709.09;4936296;29;20526;-92
2021/10/25 02:00:30;;;;;;;6.80;3.42;;;;;;;0.93;67.70;100691.75;4904500;29;20107;-90
2021/10/25 02:02:57;;;;;;;7.53;2.78;;;;;;;0.97;67.86;100697.53;4936487;29;20040;-91
2021/10/25 02:05:47;;;;;;;5.35;2.65;;;;;;;0.84;67.90;100678.75;4925212;29;20513;-89
2021/10/25 02:08:14;;;;;;;6.07;2.88;;;;;;;0.92;67.53;100675.81;4921165;29;20481;-89
2021/10/25 02:10:54;;;;;;;6.57;3.17;;;;;;;0.96;67.35;100677.06;4922610;29;20039;-89
2021/10/25 02:13:21;;;;;;;8.32;3.03;;;;;;;1.03;67.52;100720.09;4921183;29;20043;-91
2021/10/25 02:15:48;;;;;;;7.13;3.22;;;;;;;0.81;67.67;100682.72;4905705;29;20568;-88
2021/10/25 02:18:20;;;;;;;8.05;2.97;;;;;;;1.11;67.36;100719.84;4921429;29;20047;-90
2021/10/25 02:20:47;;;;;;;7.00;3.15;;;;;;;0.97;67.88;100727.16;4937701;29;20044;-90
2021/10/25 02:23:20;;;;;;;7.63;3.45;;;;;;;0.97;67.69;100726.34;4922323;29;20568;-88
2021/10/25 02:25:49;;;;;;;;;;;;;;;1.05;67.70;100726.91;4905709;29;20122;-89
2021/10/25 02:28:18;;;;;;;5.75;2.50;;;;;;;0.97;67.50;100731.72;4934828;29;19926;-90
2021/10/25 02:30:50;;;;;;;4.57;3.10;;;;;;;1.02;67.71;100739.97;4904648;29;20040;-89
2021/10/25 02:33:19;;;;;;;10.18;3.30;;;;;;;1.05;67.87;100739.53;4901155;29;20573;-89
2021/10/25 02:35:46;;;;;;;7.00;3.47;;;;;;;0.80;67.93;100723.31;4900638;29;20040;-88
2021/10/25 02:38:15;;;;;;;10.35;4.05;;;;;;;0.66;68.30;100712.59;4909566;29;20518;-90
2021/10/25 02:40:47;;;;;;;10.60;3.35;;;;;;;0.74;68.09;100711.53;4922046;29;20052;-88
2021/10/25 02:43:16;;;;;;;6.95;3.35;;;;;;;1.08;67.29;100749.88;4936220;29;20044;-91
2021/10/25 02:45:43;;;;;;;7.32;3.20;;;;;;;1.06;67.81;100747.41;4904288;29;20036;-89
2021/10/25 02:48:11;;;;;;;7.20;4.10;;;;;;;0.65;67.54;100696.66;4909569;29;20059;-89
2021/10/25 02:50:38;;;;;;;7.10;3.55;;;;;;;0.86;67.38;100711.66;4954353;29;20298;-88
2021/10/25 02:53:09;;;;;;;9.40;4.43;;;;;;;0.69;67.85;100692.50;4921986;29;20032;-88
2021/10/25 02:55:38;;;;;;;7.03;3.45;;;;;;;0.83;67.92;100729.09;4939229;29;20051;-89
2021/10/25 02:58:05;;;;;;;10.23;3.75;;;;;;;1.01;67.92;100747.22;4955467;29;20047;-88
2021/10/25 03:00:32;;;;;;;21.70;3.50;;;;;;;0.92;68.09;100752.03;4924165;29;20519;-88
2021/10/25 03:03:02;;;;;;;7.18;3.35;;;;;;;0.64;68.30;100711.16;4918699;29;20497;-89
2021/10/25 03:05:30;;;;;;;8.68;3.38;;;;;;;1.07;67.67;100751.75;4951310;29;20402;-90
2021/10/25 03:07:57;;;;;;;13.32;3.15;;;;;;;1.03;67.25;100747.03;4922987;29;20074;-90
2021/10/25 03:10:24;;;;;;;7.05;3.47;;;;;;;1.03;67.34;100755.94;4955793;29;20501;-89
2021/10/25 03:12:50;;;;;;;10.18;3.40;;;;;;;0.68;67.83;100718.59;4923628;29;20039;-90
2021/10/25 03:15:18;;;;;;;7.18;2.92;;;;;;;0.80;68.12;100742.97;4897008;29;20057;-90
2021/10/25 03:17:45;;;;;;;7.78;3.40;;;;;;;0.85;67.92;100742.31;4880736;29;20056;-91
2021/10/25 03:20:19;;;;;;;7.85;3.72;;;;;;;0.82;68.27;100761.59;4865564;29;20535;-88
2021/10/25 03:22:45;;;;;;;9.30;3.58;;;;;;;0.82;68.30;100748.97;4914491;29;20056;-89
2021/10/25 03:25:16;;;;;;;9.73;3.90;;;;;;;0.50;68.58;100710.38;4883568;29;20040;-91
2021/10/25 03:27:44;;;;;;;13.23;3.78;;;;;;;0.80;68.44;100767.22;4883123;29;20044;-89
2021/10/25 03:30:12;;;;;;;11.75;4.03;;;;;;;0.60;68.65;100734.16;4882932;29;20048;-91
2021/10/25 03:32:43;;;;;;;7.45;3.47;;;;;;;0.80;68.31;100769.91;4884395;29;20595;-90
2021/10/25 03:35:32;;;;;;;10.45;4.18;;;;;;;0.61;68.97;100731.25;4886782;29;20149;-90
2021/10/25 03:38:01;;;;;;;10.95;3.95;;;;;;;0.64;68.30;100724.63;4894027;29;20552;-91
2021/10/25 03:40:30;;;;;;;6.93;3.92;;;;;;;0.72;68.69;100756.66;4898576;29;20040;-89
2021/10/25 03:42:58;;;;;;;6.63;3.78;;;;;;;0.88;68.47;100780.41;4899798;29;20044;-90
2021/10/25 03:45:36;;;;;;;8.43;4.10;;;;;;;0.85;68.55;100782.72;4864761;29;20131;-88
2021/10/25 03:50:39;;;;;;;9.77;3.90;;;;;;;0.72;69.39;100782.75;4884436;29;20036;-91
2021/10/25 03:53:26;;;;;;;8.25;4.72;;;;;;;0.75;69.04;100793.91;4913964;29;20044;-90
2021/10/25 03:56:27;;;;;;;25.38;4.75;;;;;;;0.70;69.09;100783.81;4883427;29;20048;-89
2021/10/25 04:29:12;;;;;;;11.15;4.20;;;;;;;0.77;68.80;100820.66;4954552;29;20051;-88
2021/10/25 04:31:40;;;;;;;9.52;4.32;;;;;;;0.52;68.87;100796.25;4952439;29;20043;-88
2021/10/25 04:34:06;;;;;;;11.80;3.97;;;;;;;0.35;69.26;100785.13;4913328;29;20126;-90
2021/10/25 04:36:49;;;;;;;11.65;4.70;;;;;;;0.43;69.28;100798.34;4898946;29;20036;-89
2021/10/25 04:39:35;;;;;;;18.80;4.90;;;;;;;0.39;69.30;100792.56;4905390;29;20050;-88
2021/10/25 04:42:04;;;;;;;15.30;5.38;;;;;;;0.57;69.01;100826.06;4917039;29;20051;-89
2021/10/25 04:44:30;;;;;;;12.93;5.22;;;;;;;0.65;69.07;100837.41;4922553;29;20048;-88
2021/10/25 04:46:58;;;;;;;10.52;5.00;;;;;;;0.56;68.72;100800.19;4935391;29;20039;-87
2021/10/25 04:49:24;;;;;;;13.10;4.50;;;;;;;0.70;68.55;100840.31;4930541;29;20072;-87
2021/10/25 04:52:10;;;;;;;16.90;4.65;;;;;;;0.83;68.07;100844.84;4906866;29;20048;-89
2021/10/25 04:54:38;;;;;;;9.88;4.70;;;;;;;0.61;67.93;100820.03;4902871;29;20052;-89
2021/10/25 04:57:06;;;;;;;13.43;5.65;;;;;;;0.76;68.02;100835.94;4889021;29;20135;-88
2021/10/25 04:59:33;;;;;;;40.65;11.30;;;;;;;0.53;68.16;100795.22;4918402;29;20048;-89
2021/10/25 05:02:00;;;;;;;65.65;18.02;;;;;;;0.81;67.77;100836.16;4901384;29;20071;-88
2021/10/25 05:04:30;;;;;;;42.97;13.50;;;;;;;0.88;68.14;100860.34;4908427;29;20059;-89
2021/10/25 05:06:57;;;;;;;32.60;6.03;;;;;;;0.77;67.79;100839.47;4890407;29;20032;-87
2021/10/25 05:09:24;;;;;;;17.75;7.38;;;;;;;0.89;67.85;100870.09;4920968;29;20039;-88
2021/10/25 05:11:50;;;;;;;43.63;11.95;;;;;;;0.68;68.03;100838.88;4917991;29;20040;-88
2021/10/25 05:14:17;;;;;;;34.55;8.30;;;;;;;0.64;67.90;100825.00;4935148;29;20050;-88
2021/10/25 05:16:44;;;;;;;45.80;12.68;;;;;;;1.06;67.60;100870.44;4938125;29;20139;-89
2021/10/25 05:19:11;;;;;;;47.08;14.07;;;;;;;1.02;67.24;100848.50;4936948;29;20050;-90
2021/10/25 05:21:46;;;;;;;8.13;4.93;;;;;;;1.17;66.69;100873.31;4906535;29;20541;-88
2021/10/25 05:24:13;;;;;;;15.43;8.88;;;;;;;1.02;67.32;100853.88;4938006;29;20052;-88
2021/10/25 05:26:39;;;;;;;14.43;7.10;;;;;;;1.21;67.25;100854.88;4937886;29;20043;-87
2021/10/25 05:29:06;;;;;;;15.13;7.72;;;;;;;1.32;66.98;100880.31;4937932;29;20043;-89
2021/10/25 05:31:33;;;;;;;25.75;9.55;;;;;;;1.26;67.16;100876.63;4920840;29;20519;-89
2021/10/25 05:34:17;;;;;;;17.60;9.10;;;;;;;1.38;67.04;100896.44;4902838;29;20108;-87
2021/10/25 05:36:44;;;;;;;17.80;8.10;;;;;;;1.22;66.56;100871.84;4922779;29;20027;-90
2021/10/25 05:40:01;;;;;;;37.03;8.55;;;;;;;1.45;66.88;100899.09;4944851;29;20024;-90
2021/10/25 05:42:41;;;;;;;14.75;7.18;;;;;;;0.94;66.77;100846.06;4921674;29;20036;-90
2021/10/25 05:45:08;;;;;;;12.13;6.95;;;;;;;1.35;66.61;100896.03;5012784;23;20129;-89
2021/10/25 05:47:35;;;;;;;18.90;7.70;;;;;;;1.24;66.29;100869.78;4944866;28;20050;-87
2021/10/25 05:50:05;;;;;;;12.50;6.82;;;;;;;1.44;65.27;100908.25;4922492;29;20095;-90
2021/10/25 05:53:33;;;;;;;12.20;6.22;;;;;;;1.50;65.86;100904.69;4906809;29;20060;-89
2021/10/25 05:56:04;;;;;;;19.85;6.72;;;;;;;1.47;65.46;100915.91;4899604;29;20052;-91
2021/10/25 05:58:33;;;;;;;10.65;6.15;;;;;;;1.31;65.32;100892.13;4869317;29;20550;-90
2021/10/25 06:01:13;;;;;;;14.40;6.20;;;;;;;1.53;65.51;100914.22;4884247;29;20143;-90
2021/10/25 06:04:07;;;;;;;15.07;6.53;;;;;;;1.47;65.64;100872.78;4798105;29;20054;-91
2021/10/25 06:07:10;;;;;;;30.48;7.13;;;;;;;1.79;63.97;100875.53;4826322;29;20133;-91
2021/10/25 06:09:40;;;;;;;14.27;7.15;;;;;;;1.74;63.98;100856.47;4860976;29;20104;-91
2021/10/25 06:13:19;;;;;;;17.92;6.93;;;;;;;2.03;63.67;100912.50;4869188;29;20541;-92
2021/10/25 06:16:41;;;;;;;26.02;13.05;;;;;;;2.14;64.34;100910.97;4868692;29;20067;-89
2021/10/25 06:19:43;;;;;;;22.60;8.05;;;;;;;2.13;63.56;100884.22;4868226;29;20052;-88
2021/10/25 06:22:28;;;;;;;11.88;6.93;;;;;;;2.06;62.52;100846.50;4896635;29;20543;-89
